createdAt,value
2022-12-18T00:01:29.466Z,15.27
2022-12-18T00:03:56.952Z,15.43
2022-12-18T00:06:27.599Z,15.07
2022-12-18T00:08:55.323Z,14.53
2022-12-18T00:11:24.818Z,14.73
2022-12-18T00:13:52.880Z,14.17
2022-12-18T00:16:22.876Z,15.27
2022-12-18T00:18:51.924Z,13.90
2022-12-18T00:21:20.070Z,14.70
2022-12-18T00:23:48.556Z,13.27
2022-12-18T00:26:27.280Z,13.17
2022-12-18T00:29:03.150Z,14.47
2022-12-18T00:31:31.013Z,13.90
2022-12-18T00:33:58.840Z,14.47
2022-12-18T00:36:30.985Z,14.60
2022-12-18T00:38:59.540Z,14.30
2022-12-18T00:41:44.759Z,14.10
2022-12-18T00:44:13.700Z,13.87
2022-12-18T00:46:41.324Z,14.17
2022-12-18T00:49:08.138Z,14.47
2022-12-18T00:51:35.000Z,14.30
2022-12-18T00:54:01.761Z,14.57
2022-12-18T00:56:28.466Z,14.10
2022-12-18T00:58:55.176Z,14.10
2022-12-18T01:01:22.335Z,13.97
2022-12-18T01:03:50.249Z,13.80
2022-12-18T01:06:17.790Z,14.67
2022-12-18T01:08:44.626Z,14.43
2022-12-18T01:11:17.152Z,13.73
2022-12-18T01:13:44.593Z,14.17
2022-12-18T01:16:16.409Z,13.83
2022-12-18T01:18:43.448Z,14.70
2022-12-18T01:21:12.510Z,13.70
2022-12-18T01:23:39.656Z,13.77
2022-12-18T01:26:19.632Z,13.00
2022-12-18T01:28:46.221Z,13.47
2022-12-18T01:31:23.380Z,14.60
2022-12-18T01:33:51.325Z,13.60
2022-12-18T01:36:21.023Z,15.37
2022-12-18T01:38:49.814Z,14.07
2022-12-18T01:41:18.720Z,14.63
2022-12-18T01:43:58.372Z,15.13
2022-12-18T01:46:26.528Z,15.17
2022-12-18T01:49:02.270Z,15.13
2022-12-18T01:51:31.468Z,13.87
2022-12-18T01:53:59.468Z,14.50
2022-12-18T01:56:26.216Z,14.23
2022-12-18T01:59:07.626Z,14.40
2022-12-18T02:01:34.635Z,13.33
2022-12-18T02:04:24.231Z,13.70
2022-12-18T02:07:01.759Z,13.77
2022-12-18T02:09:42.108Z,12.97
2022-12-18T02:12:20.671Z,14.33
2022-12-18T02:15:03.257Z,14.13
2022-12-18T02:17:43.098Z,13.50
2022-12-18T02:20:27.366Z,12.90
2022-12-18T02:23:05.988Z,13.07
2022-12-18T02:25:55.366Z,13.83
2022-12-18T02:28:27.328Z,13.47
2022-12-18T02:30:58.927Z,15.10
2022-12-18T02:33:28.334Z,14.10
2022-12-18T02:35:59.549Z,15.27
2022-12-18T02:38:29.901Z,13.67
2022-12-18T02:41:00.745Z,13.00
2022-12-18T02:43:27.454Z,14.17
2022-12-18T02:45:59.586Z,13.53
2022-12-18T02:48:36.122Z,16.07
2022-12-18T02:51:30.582Z,12.77
2022-12-18T02:54:14.812Z,13.63
2022-12-18T02:56:51.397Z,13.50
2022-12-18T02:59:29.839Z,14.13
2022-12-18T03:02:04.951Z,13.90
2022-12-18T03:05:05.169Z,13.00
2022-12-18T03:07:40.313Z,13.47
2022-12-18T03:10:15.382Z,14.17
2022-12-18T03:12:51.228Z,13.97
2022-12-18T03:15:24.362Z,13.70
2022-12-18T03:18:03.863Z,13.10
2022-12-18T03:20:35.266Z,13.57
2022-12-18T03:23:10.323Z,14.60
2022-12-18T03:25:42.740Z,13.77
2022-12-18T03:28:15.992Z,12.40
2022-12-18T03:30:45.808Z,13.77
2022-12-18T03:33:41.131Z,14.67
2022-12-18T03:36:08.620Z,14.17
2022-12-18T03:38:35.410Z,14.20
2022-12-18T03:41:45.365Z,13.10
2022-12-18T03:44:36.017Z,13.37
2022-12-18T03:47:28.610Z,14.03
2022-12-18T03:50:17.422Z,13.43
2022-12-18T03:53:09.584Z,14.10
2022-12-18T03:55:37.418Z,14.90
2022-12-18T03:58:08.486Z,14.77
2022-12-18T04:00:50.855Z,13.27
2022-12-18T04:03:22.703Z,13.97
2022-12-18T04:05:55.492Z,13.57
2022-12-18T04:08:27.761Z,12.83
2022-12-18T04:11:02.979Z,13.60
2022-12-18T04:13:35.582Z,13.83
2022-12-18T04:16:06.336Z,13.53
2022-12-18T04:18:33.578Z,14.23
2022-12-18T04:21:02.217Z,13.73
2022-12-18T04:23:29.404Z,14.03
2022-12-18T04:25:58.735Z,12.07
2022-12-18T04:28:41.057Z,11.87
2022-12-18T04:31:07.722Z,14.17
2022-12-18T04:33:34.690Z,12.80
2022-12-18T04:36:02.273Z,12.93
2022-12-18T04:39:04.337Z,13.13
2022-12-18T04:41:34.399Z,13.63
2022-12-18T04:44:01.969Z,12.73
2022-12-18T04:46:28.629Z,14.40
2022-12-18T04:48:55.337Z,13.40
2022-12-18T04:51:26.433Z,11.77
2022-12-18T04:53:54.435Z,13.27
2022-12-18T04:56:21.432Z,12.47
2022-12-18T04:58:48.183Z,13.13
2022-12-18T05:01:18.706Z,13.23
2022-12-18T05:03:45.883Z,12.27
2022-12-18T05:06:12.786Z,13.73
2022-12-18T05:08:39.662Z,12.73
2022-12-18T05:11:13.857Z,13.57
2022-12-18T05:13:41.039Z,13.40
2022-12-18T05:16:08.631Z,13.73
2022-12-18T05:18:36.322Z,12.80
2022-12-18T05:21:03.757Z,13.40
2022-12-18T05:23:33.675Z,12.67
2022-12-18T05:26:04.476Z,11.80
2022-12-18T05:28:32.893Z,12.40
2022-12-18T05:31:01.733Z,13.33
2022-12-18T05:33:31.985Z,12.70
2022-12-18T05:36:04.533Z,13.30
2022-12-18T05:38:32.793Z,13.80
2022-12-18T05:41:00.135Z,14.03
2022-12-18T05:43:28.273Z,13.13
2022-12-18T05:45:55.392Z,12.47
2022-12-18T05:48:22.785Z,12.73
2022-12-18T05:50:51.034Z,12.93
2022-12-18T05:53:20.374Z,12.93
2022-12-18T05:55:48.042Z,12.73
2022-12-18T05:58:15.729Z,13.00
2022-12-18T06:00:46.000Z,14.83
2022-12-18T06:03:14.225Z,14.13
2022-12-18T06:05:44.008Z,12.87
2022-12-18T06:08:11.655Z,14.17
2022-12-18T06:10:38.933Z,13.03
2022-12-18T06:13:06.811Z,13.80
2022-12-18T06:15:33.903Z,11.90
2022-12-18T06:18:01.937Z,13.67
2022-12-18T06:20:33.777Z,14.73
2022-12-18T06:23:01.290Z,14.80
2022-12-18T06:25:28.124Z,15.80
2022-12-18T06:27:54.789Z,14.17
2022-12-18T06:30:22.372Z,14.73
2022-12-18T06:32:54.699Z,13.53
2022-12-18T06:35:23.390Z,15.00
2022-12-18T06:37:49.986Z,13.83
2022-12-18T06:40:17.498Z,13.77
2022-12-18T06:42:44.075Z,14.90
2022-12-18T06:45:11.057Z,15.47
2022-12-18T06:47:37.830Z,13.17
2022-12-18T06:50:04.692Z,14.23
2022-12-18T06:52:33.222Z,13.67
2022-12-18T06:55:01.192Z,14.60
2022-12-18T06:57:27.983Z,14.67
2022-12-18T06:59:54.635Z,16.30
2022-12-18T07:02:21.548Z,16.13
2022-12-18T07:04:48.151Z,16.63
2022-12-18T07:07:14.795Z,28.47
2022-12-18T07:09:41.424Z,19.13
2022-12-18T07:12:09.181Z,15.00
2022-12-18T07:14:35.927Z,15.87
2022-12-18T07:17:02.804Z,16.10
2022-12-18T07:19:30.650Z,14.40
2022-12-18T07:21:57.809Z,15.87
2022-12-18T07:24:24.449Z,14.23
2022-12-18T07:26:51.147Z,13.23
2022-12-18T07:29:17.742Z,13.63
2022-12-18T07:31:45.649Z,13.97
2022-12-18T07:34:13.574Z,12.87
2022-12-18T07:36:40.454Z,14.93
2022-12-18T07:39:07.094Z,12.53
2022-12-18T07:41:34.264Z,13.87
2022-12-18T07:44:11.598Z,17.07
2022-12-18T07:46:38.359Z,15.80
2022-12-18T07:49:05.273Z,14.87
2022-12-18T07:51:32.078Z,28.10
2022-12-18T07:53:58.920Z,23.40
2022-12-18T07:56:27.730Z,17.57
2022-12-18T07:58:55.891Z,17.57
2022-12-18T08:01:22.874Z,19.20
2022-12-18T08:03:50.194Z,17.63
2022-12-18T08:06:22.402Z,15.03
2022-12-18T08:08:55.588Z,14.63
2022-12-18T08:11:23.889Z,16.20
2022-12-18T08:13:50.588Z,17.43
2022-12-18T08:16:18.283Z,18.67
2022-12-18T08:18:44.981Z,18.87
2022-12-18T08:21:14.325Z,21.77
2022-12-18T08:23:43.340Z,21.77
2022-12-18T08:26:11.904Z,18.10
2022-12-18T08:28:38.744Z,22.97
2022-12-18T08:31:06.749Z,24.27
2022-12-18T08:33:34.077Z,23.53
2022-12-18T08:36:01.829Z,23.87
2022-12-18T08:38:29.424Z,21.90
2022-12-18T08:41:03.395Z,17.77
2022-12-18T08:43:48.580Z,17.27
2022-12-18T08:46:15.548Z,16.07
2022-12-18T08:48:42.506Z,16.87
2022-12-18T08:51:10.661Z,16.40
2022-12-18T08:53:38.793Z,15.90
2022-12-18T08:56:06.429Z,16.77
2022-12-18T08:58:33.138Z,17.30
2022-12-18T09:01:04.567Z,19.00
2022-12-18T09:03:35.076Z,19.63
2022-12-18T09:06:01.886Z,19.60
2022-12-18T09:08:29.166Z,21.03
2022-12-18T09:10:56.558Z,19.87
2022-12-18T09:13:23.975Z,21.67
2022-12-18T09:15:53.318Z,20.07
2022-12-18T09:18:23.874Z,21.20
2022-12-18T09:20:52.899Z,21.67
2022-12-18T09:23:19.937Z,21.50
2022-12-18T09:25:46.654Z,20.47
2022-12-18T09:28:15.753Z,20.93
2022-12-18T09:30:45.826Z,20.90
2022-12-18T09:33:12.517Z,21.33
2022-12-18T09:35:40.612Z,20.37
2022-12-18T09:38:08.108Z,22.67
2022-12-18T09:40:41.085Z,21.00
2022-12-18T09:43:34.444Z,21.07
2022-12-18T09:46:17.254Z,22.63
2022-12-18T09:48:49.298Z,21.50
2022-12-18T09:51:21.486Z,23.60
2022-12-18T09:53:54.346Z,21.67
2022-12-18T09:56:24.046Z,21.80
2022-12-18T09:58:56.757Z,21.67
2022-12-18T10:01:24.299Z,27.20
2022-12-18T10:03:55.315Z,28.20
2022-12-18T10:06:36.560Z,31.73
2022-12-18T10:09:19.416Z,24.43
2022-12-18T10:12:05.808Z,20.23
2022-12-18T10:15:06.045Z,19.30
2022-12-18T10:17:44.135Z,20.80
2022-12-18T10:20:39.807Z,21.43
2022-12-18T10:23:09.474Z,20.07
2022-12-18T10:25:51.312Z,22.17
2022-12-18T10:28:20.361Z,20.97
2022-12-18T10:30:47.289Z,20.67
2022-12-18T10:33:24.998Z,21.23
2022-12-18T10:35:52.387Z,20.97
2022-12-18T10:38:18.949Z,22.13
2022-12-18T10:40:57.017Z,20.77
2022-12-18T10:43:24.137Z,21.37
2022-12-18T10:46:00.182Z,20.60
2022-12-18T10:48:29.080Z,21.17
2022-12-18T10:51:12.982Z,21.20
2022-12-18T10:53:43.721Z,20.40
2022-12-18T10:56:10.654Z,20.30
2022-12-18T10:58:40.219Z,21.70
2022-12-18T11:01:21.124Z,21.93
2022-12-18T11:04:02.672Z,21.20
2022-12-18T11:06:29.948Z,20.30
2022-12-18T11:09:12.219Z,19.67
2022-12-18T11:11:41.248Z,21.27
2022-12-18T11:14:16.532Z,20.40
2022-12-18T11:17:23.898Z,21.53
2022-12-18T11:19:40.697Z,20.23
2022-12-18T11:22:27.577Z,19.87
2022-12-18T11:25:34.619Z,20.30
2022-12-18T11:28:25.360Z,20.47
2022-12-18T11:31:24.529Z,19.47
2022-12-18T11:34:27.458Z,21.07
2022-12-18T11:36:47.543Z,19.77
2022-12-18T11:39:25.651Z,19.90
2022-12-18T11:42:12.641Z,19.53
2022-12-18T11:44:51.998Z,20.77
2022-12-18T11:47:31.882Z,19.23
2022-12-18T11:50:02.293Z,20.23
2022-12-18T11:52:39.397Z,19.70
2022-12-18T11:55:13.811Z,19.97
2022-12-18T11:57:47.592Z,20.27
2022-12-18T12:00:21.020Z,22.87
2022-12-18T12:03:47.600Z,22.03
2022-12-18T12:06:41.432Z,21.20
2022-12-18T12:09:40.430Z,19.50
2022-12-18T12:12:30.473Z,20.70
2022-12-18T12:15:15.476Z,20.50
2022-12-18T12:17:51.440Z,21.10
2022-12-18T12:20:56.089Z,21.93
2022-12-18T12:23:31.842Z,19.87
2022-12-18T12:26:28.508Z,20.67
2022-12-18T12:29:20.830Z,19.20
2022-12-18T12:32:03.200Z,19.67
2022-12-18T12:35:17.279Z,20.37
2022-12-18T12:38:07.385Z,19.80
2022-12-18T12:40:52.475Z,19.53
2022-12-18T12:43:50.442Z,18.27
2022-12-18T12:46:22.361Z,17.90
2022-12-18T12:48:53.708Z,19.63
2022-12-18T12:51:41.156Z,20.13
2022-12-18T12:54:18.165Z,19.03
2022-12-18T12:57:08.681Z,21.80
2022-12-18T13:00:14.686Z,19.30
2022-12-18T13:02:58.184Z,20.03
2022-12-18T13:05:44.236Z,20.13
2022-12-18T13:08:25.524Z,19.37
2022-12-18T13:11:13.868Z,19.17
2022-12-18T13:13:55.877Z,19.50
2022-12-18T13:16:26.676Z,20.30
2022-12-18T13:18:59.917Z,19.90
2022-12-18T13:21:28.609Z,20.00
2022-12-18T13:23:56.772Z,19.87
2022-12-18T13:26:29.111Z,21.30
2022-12-18T13:28:58.087Z,19.87
2022-12-18T13:31:30.910Z,20.67
2022-12-18T13:34:28.175Z,19.70
2022-12-18T13:37:19.920Z,19.53
2022-12-18T13:39:46.629Z,20.20
2022-12-18T13:42:34.383Z,20.07
2022-12-18T13:45:01.520Z,19.60
2022-12-18T13:47:41.196Z,20.10
2022-12-18T13:50:23.433Z,20.40
2022-12-18T13:52:52.394Z,19.50
2022-12-18T13:55:21.869Z,18.73
2022-12-18T13:57:48.637Z,19.07
2022-12-18T14:00:29.140Z,21.23
2022-12-18T14:02:57.387Z,19.60
2022-12-18T14:05:33.311Z,19.37
2022-12-18T14:08:11.601Z,19.80
2022-12-18T14:10:48.447Z,18.67
2022-12-18T14:13:32.564Z,18.60
2022-12-18T14:16:02.653Z,18.70
2022-12-18T14:18:40.003Z,19.30
2022-12-18T14:21:17.958Z,19.43
2022-12-18T14:23:45.464Z,19.70
2022-12-18T14:26:30.595Z,20.63
2022-12-18T14:29:11.919Z,20.80
2022-12-18T14:31:39.618Z,19.37
2022-12-18T14:34:06.359Z,19.67
2022-12-18T14:36:33.206Z,20.10
2022-12-18T14:39:00.519Z,19.57
2022-12-18T14:41:28.795Z,19.63
2022-12-18T14:43:55.845Z,20.57
2022-12-18T14:46:47.331Z,20.67
2022-12-18T14:49:28.464Z,19.63
2022-12-18T14:51:57.630Z,19.93
2022-12-18T14:54:26.044Z,20.43
2022-12-18T14:56:57.854Z,21.93
2022-12-18T14:59:27.908Z,19.87
2022-12-18T15:02:21.335Z,20.47
2022-12-18T15:04:48.535Z,20.00
2022-12-18T15:07:20.037Z,20.07
2022-12-18T15:10:14.675Z,22.23
2022-12-18T15:12:49.214Z,21.17
2022-12-18T15:15:34.580Z,21.07
2022-12-18T15:18:02.831Z,19.67
2022-12-18T15:20:33.624Z,22.60
2022-12-18T15:23:00.454Z,20.37
2022-12-18T15:25:38.941Z,20.60
2022-12-18T15:28:20.305Z,21.93
2022-12-18T15:31:26.606Z,22.30
2022-12-18T15:33:54.067Z,20.77
2022-12-18T15:36:26.885Z,21.80
2022-12-18T15:39:04.688Z,21.90
2022-12-18T15:41:36.726Z,22.10
2022-12-18T15:44:15.887Z,24.00
2022-12-18T15:46:43.122Z,20.37
2022-12-18T15:49:09.833Z,25.60
2022-12-18T15:51:38.515Z,28.30
2022-12-18T15:54:11.060Z,21.20
2022-12-18T15:57:20.237Z,21.50
2022-12-18T15:59:46.891Z,21.33
2022-12-18T16:02:19.305Z,20.83
2022-12-18T16:05:05.847Z,21.60
2022-12-18T16:07:32.393Z,21.10
2022-12-18T16:10:01.104Z,21.10
2022-12-18T16:12:29.304Z,22.30
2022-12-18T16:14:56.093Z,21.57
2022-12-18T16:17:22.807Z,21.07
2022-12-18T16:19:50.537Z,21.13
2022-12-18T16:22:29.385Z,22.37
2022-12-18T16:24:57.955Z,21.03
2022-12-18T16:27:26.027Z,19.63
2022-12-18T16:29:52.716Z,22.00
2022-12-18T16:32:21.621Z,24.63
2022-12-18T16:34:48.521Z,20.80
2022-12-18T16:37:29.288Z,21.90
2022-12-18T16:39:56.074Z,21.57
2022-12-18T16:42:22.756Z,20.87
2022-12-18T16:44:50.606Z,24.70
2022-12-18T16:47:19.760Z,24.67
2022-12-18T16:49:46.791Z,23.57
2022-12-18T16:52:14.436Z,21.97
2022-12-18T16:54:41.275Z,22.50
2022-12-18T16:57:13.132Z,21.93
2022-12-18T16:59:40.049Z,22.80
2022-12-18T17:02:13.248Z,21.57
2022-12-18T17:04:40.089Z,21.00
2022-12-18T17:07:06.785Z,23.03
2022-12-18T17:09:33.401Z,21.17
2022-12-18T17:12:04.253Z,20.57
2022-12-18T17:14:35.216Z,21.30
2022-12-18T17:19:50.627Z,20.50
2022-12-18T17:22:17.284Z,21.30
2022-12-18T17:24:43.828Z,20.50
2022-12-18T17:27:10.777Z,22.57
2022-12-18T17:29:41.147Z,21.63
2022-12-18T17:32:11.994Z,21.00
2022-12-18T17:34:41.020Z,22.20
2022-12-18T17:37:08.006Z,21.30
2022-12-18T17:39:34.931Z,21.80
2022-12-18T17:42:01.805Z,23.10
2022-12-18T17:44:28.726Z,22.03
2022-12-18T17:46:55.454Z,21.57
2022-12-18T17:49:22.733Z,22.77
2022-12-18T17:51:49.855Z,20.60
2022-12-18T17:54:16.691Z,21.53
2022-12-18T17:56:43.530Z,21.00
2022-12-18T17:59:11.169Z,21.70
2022-12-18T18:01:44.104Z,21.30
2022-12-18T18:04:11.547Z,21.20
2022-12-18T18:06:39.112Z,21.07
2022-12-18T18:09:08.215Z,21.70
2022-12-18T18:12:01.476Z,21.47
2022-12-18T18:14:29.268Z,21.97
2022-12-18T18:16:56.505Z,20.73
2022-12-18T18:19:25.661Z,20.83
2022-12-18T18:21:56.468Z,21.67
2022-12-18T18:24:24.191Z,22.57
2022-12-18T18:26:51.346Z,22.20
2022-12-18T18:29:21.032Z,20.30
2022-12-18T18:31:48.777Z,21.67
2022-12-18T18:34:27.611Z,21.23
2022-12-18T18:36:54.398Z,21.70
2022-12-18T18:39:21.236Z,22.10
2022-12-18T18:41:49.290Z,20.63
2022-12-18T18:44:17.955Z,20.53
2022-12-18T18:46:45.414Z,21.27
2022-12-18T18:49:13.809Z,20.90
2022-12-18T18:51:41.670Z,20.30
2022-12-18T18:54:08.909Z,21.77
2022-12-18T18:59:31.549Z,22.43
2022-12-18T19:02:00.640Z,21.13
2022-12-18T19:04:30.911Z,21.47
2022-12-18T19:06:57.448Z,21.60
2022-12-18T19:09:25.694Z,20.67
2022-12-18T19:12:12.104Z,24.10
2022-12-18T19:14:38.722Z,19.37
2022-12-18T19:17:05.465Z,21.17
2022-12-18T19:19:32.421Z,21.10
2022-12-18T19:21:59.187Z,21.53
2022-12-18T19:24:29.831Z,21.37
2022-12-18T19:26:58.192Z,21.83
2022-12-18T19:29:25.075Z,21.90
2022-12-18T19:31:52.088Z,21.47
2022-12-18T19:34:19.368Z,22.10
2022-12-18T19:36:47.059Z,21.13
2022-12-18T19:39:19.393Z,21.33
2022-12-18T19:41:46.890Z,20.83
2022-12-18T19:44:15.909Z,21.27
2022-12-18T19:46:43.799Z,21.00
2022-12-18T19:49:17.617Z,20.93
2022-12-18T19:51:45.645Z,20.67
2022-12-18T19:54:17.221Z,20.87
2022-12-18T19:56:44.651Z,21.63
2022-12-18T19:59:11.633Z,21.33
2022-12-18T20:01:40.713Z,21.93
2022-12-18T20:04:07.805Z,21.67
2022-12-18T20:10:35.067Z,22.20
2022-12-18T20:13:01.863Z,21.23
2022-12-18T20:15:47.340Z,20.57
2022-12-18T20:18:13.917Z,22.93
2022-12-18T20:21:14.366Z,21.33
2022-12-18T20:23:46.229Z,23.33
2022-12-18T20:26:13.145Z,22.63
2022-12-18T20:28:43.954Z,21.47
2022-12-18T20:31:13.495Z,21.20
2022-12-18T20:33:42.400Z,22.77
2022-12-18T20:36:52.218Z,25.20
2022-12-18T20:39:19.234Z,21.13
2022-12-18T20:41:47.131Z,20.43
2022-12-18T20:44:34.129Z,21.13
2022-12-18T20:47:03.376Z,19.97
2022-12-18T20:49:35.480Z,20.63
2022-12-18T20:52:04.142Z,21.30
2022-12-18T20:54:30.929Z,19.90
2022-12-18T20:56:57.830Z,19.77
2022-12-18T20:59:25.840Z,19.97
2022-12-18T21:01:54.648Z,20.77
2022-12-18T21:04:21.966Z,20.27
2022-12-18T21:06:54.123Z,20.53
2022-12-18T21:09:27.538Z,19.93
2022-12-18T21:12:17.265Z,21.03
2022-12-18T21:14:44.799Z,20.37
2022-12-18T21:17:11.873Z,19.77
2022-12-18T21:19:38.973Z,19.83
2022-12-18T21:22:05.720Z,20.70
2022-12-18T21:24:32.903Z,20.00
2022-12-18T21:26:59.845Z,19.57
2022-12-18T21:29:27.019Z,20.47
2022-12-18T21:31:54.704Z,20.00
2022-12-18T21:34:25.624Z,20.37
2022-12-18T21:36:53.168Z,19.73
2022-12-18T21:39:20.223Z,19.10
2022-12-18T21:42:08.368Z,19.87
2022-12-18T21:44:40.119Z,20.10
2022-12-18T21:47:21.772Z,20.10
2022-12-18T21:49:53.457Z,20.40
2022-12-18T21:52:31.185Z,20.10
2022-12-18T21:55:07.955Z,21.20
2022-12-18T21:57:35.759Z,20.77
2022-12-18T22:00:03.533Z,19.87
2022-12-18T22:02:39.517Z,21.17
2022-12-18T22:05:06.882Z,20.00
2022-12-18T22:07:33.849Z,18.67
2022-12-18T22:10:00.903Z,20.40
2022-12-18T22:12:43.618Z,19.80
2022-12-18T22:15:14.352Z,19.27
2022-12-18T22:17:59.825Z,19.40
2022-12-18T22:20:27.597Z,20.80
2022-12-18T22:22:55.791Z,19.13
2022-12-18T22:25:22.362Z,19.90
2022-12-18T22:28:08.951Z,20.30
2022-12-18T22:30:35.871Z,19.67
2022-12-18T22:33:03.681Z,18.83
2022-12-18T22:35:30.461Z,20.40
2022-12-18T22:37:59.607Z,19.43
2022-12-18T22:40:26.947Z,20.10
2022-12-18T22:42:54.588Z,20.33
2022-12-18T22:45:21.129Z,20.57
2022-12-18T22:47:47.638Z,21.03
2022-12-18T22:50:14.781Z,20.83
2022-12-18T22:52:41.468Z,20.30
2022-12-18T22:55:08.819Z,22.07
2022-12-18T22:57:35.579Z,20.67
2022-12-18T23:00:05.196Z,20.80
2022-12-18T23:02:32.207Z,19.07
2022-12-18T23:04:58.819Z,20.60
2022-12-18T23:07:25.486Z,18.77
2022-12-18T23:09:57.382Z,19.83
2022-12-18T23:12:27.703Z,19.17
2022-12-18T23:14:54.914Z,20.17
2022-12-18T23:17:21.634Z,18.63
2022-12-18T23:19:49.443Z,19.57
2022-12-18T23:22:17.079Z,19.47
2022-12-18T23:24:43.825Z,19.03
2022-12-18T23:27:11.671Z,20.10
2022-12-18T23:29:39.530Z,19.83
2022-12-18T23:32:07.197Z,19.10
2022-12-18T23:34:33.876Z,19.17
2022-12-18T23:37:01.280Z,20.07
2022-12-18T23:39:29.066Z,20.13
2022-12-18T23:42:01.010Z,19.17
2022-12-18T23:44:28.222Z,18.80
2022-12-18T23:46:55.527Z,19.90
2022-12-18T23:49:22.553Z,19.63
2022-12-18T23:51:49.412Z,20.13
2022-12-18T23:54:16.137Z,19.73
2022-12-18T23:56:43.085Z,19.53
2022-12-18T23:59:09.951Z,19.03
